sensor_id;sensor_type;location;lat;lon;timestamp;temperature;humidity
9800;DHT22;4939;52.00085300;4.17406100;2023-06-22T00:00:57;17.30;99.90
9800;DHT22;4939;52.00085300;4.17406100;2023-06-22T00:03:24;17.30;99.90
9800;DHT22;4939;52.00085300;4.17406100;2023-06-22T00:05:50;17.30;99.90
9800;DHT22;4939;52.00085300;4.17406100;2023-06-22T00:08:16;17.20;99.90
9800;DHT22;4939;52.00085300;4.17406100;2023-06-22T00:10:43;17.20;99.90
9800;DHT22;4939;52.00085300;4.17406100;2023-06-22T00:13:09;17.20;99.90
9800;DHT22;4939;52.00085300;4.17406100;2023-06-22T00:15:37;17.30;99.90
9800;DHT22;4939;52.00085300;4.17406100;2023-06-22T00:18:03;17.20;99.90
9800;DHT22;4939;52.00085300;4.17406100;2023-06-22T00:20:29;17.20;99.90
9800;DHT22;4939;52.00085300;4.17406100;2023-06-22T00:22:56;17.20;99.90
9800;DHT22;4939;52.00085300;4.17406100;2023-06-22T00:25:22;17.20;99.90
9800;DHT22;4939;52.00085300;4.17406100;2023-06-22T00:27:48;17.20;99.90
9800;DHT22;4939;52.00085300;4.17406100;2023-06-22T00:30:15;17.10;99.90
9800;DHT22;4939;52.00085300;4.17406100;2023-06-22T00:32:42;17.10;99.90
9800;DHT22;4939;52.00085300;4.17406100;2023-06-22T00:35:08;17.10;99.90
9800;DHT22;4939;52.00085300;4.17406100;2023-06-22T00:37:34;17.10;99.90
9800;DHT22;4939;52.00085300;4.17406100;2023-06-22T00:40:01;17.10;99.90
9800;DHT22;4939;52.00085300;4.17406100;2023-06-22T00:42:27;17.10;99.90
9800;DHT22;4939;52.00085300;4.17406100;2023-06-22T00:44:53;17.00;99.90
9800;DHT22;4939;52.00085300;4.17406100;2023-06-22T00:47:18;17.00;99.90
9800;DHT22;4939;52.00085300;4.17406100;2023-06-22T00:49:45;17.10;99.90
9800;DHT22;4939;52.00085300;4.17406100;2023-06-22T00:52:12;17.10;99.90
9800;DHT22;4939;52.00085300;4.17406100;2023-06-22T00:54:49;17.10;99.90
9800;DHT22;4939;52.00085300;4.17406100;2023-06-22T00:57:17;17.00;99.90
9800;DHT22;4939;52.00085300;4.17406100;2023-06-22T00:59:44;17.00;99.90
9800;DHT22;4939;52.00085300;4.17406100;2023-06-22T01:02:10;17.00;99.90
9800;DHT22;4939;52.00085300;4.17406100;2023-06-22T01:04:38;17.00;99.90
9800;DHT22;4939;52.00085300;4.17406100;2023-06-22T01:07:30;17.00;99.90
9800;DHT22;4939;52.00085300;4.17406100;2023-06-22T01:10:08;17.00;99.90
9800;DHT22;4939;52.00085300;4.17406100;2023-06-22T01:12:43;17.00;99.90
9800;DHT22;4939;52.00085300;4.17406100;2023-06-22T01:15:39;16.90;99.90
9800;DHT22;4939;52.00085300;4.17406100;2023-06-22T01:18:05;16.90;99.90
9800;DHT22;4939;52.00085300;4.17406100;2023-06-22T01:20:34;16.90;99.90
9800;DHT22;4939;52.00085300;4.17406100;2023-06-22T01:28:46;16.90;99.90
9800;DHT22;4939;52.00085300;4.17406100;2023-06-22T01:31:16;16.90;99.90
9800;DHT22;4939;52.00085300;4.17406100;2023-06-22T01:33:45;16.90;99.90
9800;DHT22;4939;52.00085300;4.17406100;2023-06-22T01:36:12;16.90;99.90
9800;DHT22;4939;52.00085300;4.17406100;2023-06-22T01:38:39;16.90;99.90
9800;DHT22;4939;52.00085300;4.17406100;2023-06-22T01:41:05;16.90;99.90
9800;DHT22;4939;52.00085300;4.17406100;2023-06-22T01:43:32;16.90;99.90
9800;DHT22;4939;52.00085300;4.17406100;2023-06-22T01:46:01;16.90;99.90
9800;DHT22;4939;52.00085300;4.17406100;2023-06-22T01:48:27;16.90;99.90
9800;DHT22;4939;52.00085300;4.17406100;2023-06-22T01:50:55;16.80;99.90
9800;DHT22;4939;52.00085300;4.17406100;2023-06-22T01:53:25;16.80;99.90
9800;DHT22;4939;52.00085300;4.17406100;2023-06-22T01:55:51;16.80;99.90
9800;DHT22;4939;52.00085300;4.17406100;2023-06-22T01:58:17;16.80;99.90
9800;DHT22;4939;52.00085300;4.17406100;2023-06-22T02:00:56;16.70;99.90
9800;DHT22;4939;52.00085300;4.17406100;2023-06-22T02:03:31;16.70;99.90
9800;DHT22;4939;52.00085300;4.17406100;2023-06-22T02:06:10;16.70;99.90
9800;DHT22;4939;52.00085300;4.17406100;2023-06-22T02:08:45;16.70;99.90
9800;DHT22;4939;52.00085300;4.17406100;2023-06-22T02:11:13;16.70;99.90
9800;DHT22;4939;52.00085300;4.17406100;2023-06-22T02:13:40;16.70;99.90
9800;DHT22;4939;52.00085300;4.17406100;2023-06-22T02:16:10;16.70;99.90
9800;DHT22;4939;52.00085300;4.17406100;2023-06-22T02:18:50;16.70;99.90
9800;DHT22;4939;52.00085300;4.17406100;2023-06-22T02:21:17;16.70;99.90
9800;DHT22;4939;52.00085300;4.17406100;2023-06-22T02:23:42;16.70;99.90
9800;DHT22;4939;52.00085300;4.17406100;2023-06-22T02:26:08;16.60;99.90
9800;DHT22;4939;52.00085300;4.17406100;2023-06-22T02:28:34;16.60;99.90
9800;DHT22;4939;52.00085300;4.17406100;2023-06-22T02:30:59;16.60;99.90
9800;DHT22;4939;52.00085300;4.17406100;2023-06-22T02:33:25;16.60;99.90
9800;DHT22;4939;52.00085300;4.17406100;2023-06-22T02:35:51;16.60;99.90
9800;DHT22;4939;52.00085300;4.17406100;2023-06-22T02:38:16;16.60;99.90
9800;DHT22;4939;52.00085300;4.17406100;2023-06-22T02:40:43;16.60;99.90
9800;DHT22;4939;52.00085300;4.17406100;2023-06-22T02:43:08;16.50;99.90
9800;DHT22;4939;52.00085300;4.17406100;2023-06-22T02:45:34;16.50;99.90
9800;DHT22;4939;52.00085300;4.17406100;2023-06-22T02:47:59;16.50;99.90
9800;DHT22;4939;52.00085300;4.17406100;2023-06-22T02:50:25;16.50;99.90
9800;DHT22;4939;52.00085300;4.17406100;2023-06-22T02:52:51;16.50;99.90
9800;DHT22;4939;52.00085300;4.17406100;2023-06-22T02:55:16;16.50;99.90
9800;DHT22;4939;52.00085300;4.17406100;2023-06-22T02:57:42;16.50;99.90
9800;DHT22;4939;52.00085300;4.17406100;2023-06-22T03:00:12;16.50;99.90
9800;DHT22;4939;52.00085300;4.17406100;2023-06-22T03:02:45;16.50;99.90
9800;DHT22;4939;52.00085300;4.17406100;2023-06-22T03:05:11;16.50;99.90
9800;DHT22;4939;52.00085300;4.17406100;2023-06-22T03:07:40;16.50;99.90
9800;DHT22;4939;52.00085300;4.17406100;2023-06-22T03:10:07;16.50;99.90
9800;DHT22;4939;52.00085300;4.17406100;2023-06-22T03:12:32;16.40;99.90
9800;DHT22;4939;52.00085300;4.17406100;2023-06-22T03:14:58;16.40;99.90
9800;DHT22;4939;52.00085300;4.17406100;2023-06-22T03:17:24;16.40;99.90
9800;DHT22;4939;52.00085300;4.17406100;2023-06-22T03:19:49;16.40;99.90
9800;DHT22;4939;52.00085300;4.17406100;2023-06-22T03:22:15;16.40;99.90
9800;DHT22;4939;52.00085300;4.17406100;2023-06-22T03:24:41;16.40;99.90
9800;DHT22;4939;52.00085300;4.17406100;2023-06-22T03:27:06;16.40;99.90
9800;DHT22;4939;52.00085300;4.17406100;2023-06-22T03:29:32;16.30;99.90
9800;DHT22;4939;52.00085300;4.17406100;2023-06-22T03:31:58;16.30;99.90
9800;DHT22;4939;52.00085300;4.17406100;2023-06-22T03:34:24;16.30;99.90
9800;DHT22;4939;52.00085300;4.17406100;2023-06-22T03:36:49;16.20;99.90
9800;DHT22;4939;52.00085300;4.17406100;2023-06-22T03:39:15;16.20;99.90
9800;DHT22;4939;52.00085300;4.17406100;2023-06-22T03:41:40;16.20;99.90
9800;DHT22;4939;52.00085300;4.17406100;2023-06-22T03:44:06;16.30;99.90
9800;DHT22;4939;52.00085300;4.17406100;2023-06-22T03:46:32;16.30;99.90
9800;DHT22;4939;52.00085300;4.17406100;2023-06-22T03:48:57;16.30;99.90
9800;DHT22;4939;52.00085300;4.17406100;2023-06-22T03:51:23;16.30;99.90
9800;DHT22;4939;52.00085300;4.17406100;2023-06-22T03:53:48;16.20;99.90
9800;DHT22;4939;52.00085300;4.17406100;2023-06-22T03:56:14;16.30;99.90
9800;DHT22;4939;52.00085300;4.17406100;2023-06-22T03:58:45;16.30;99.90
9800;DHT22;4939;52.00085300;4.17406100;2023-06-22T04:01:11;16.10;99.90
9800;DHT22;4939;52.00085300;4.17406100;2023-06-22T04:03:40;16.30;99.90
9800;DHT22;4939;52.00085300;4.17406100;2023-06-22T04:06:06;16.30;99.90
9800;DHT22;4939;52.00085300;4.17406100;2023-06-22T04:08:32;16.30;99.90
9800;DHT22;4939;52.00085300;4.17406100;2023-06-22T04:10:57;16.30;99.90
9800;DHT22;4939;52.00085300;4.17406100;2023-06-22T04:13:23;16.30;99.90
9800;DHT22;4939;52.00085300;4.17406100;2023-06-22T04:15:48;16.30;99.90
9800;DHT22;4939;52.00085300;4.17406100;2023-06-22T04:18:14;16.30;99.90
9800;DHT22;4939;52.00085300;4.17406100;2023-06-22T04:20:40;16.40;99.90
9800;DHT22;4939;52.00085300;4.17406100;2023-06-22T04:23:05;16.40;99.90
9800;DHT22;4939;52.00085300;4.17406100;2023-06-22T04:25:31;16.50;99.90
9800;DHT22;4939;52.00085300;4.17406100;2023-06-22T04:27:57;16.50;99.90
9800;DHT22;4939;52.00085300;4.17406100;2023-06-22T04:30:22;16.50;99.90
9800;DHT22;4939;52.00085300;4.17406100;2023-06-22T04:32:48;16.60;99.90
9800;DHT22;4939;52.00085300;4.17406100;2023-06-22T04:35:24;18.70;99.90
9800;DHT22;4939;52.00085300;4.17406100;2023-06-22T04:37:49;16.70;99.90
9800;DHT22;4939;52.00085300;4.17406100;2023-06-22T04:40:15;16.80;99.90
9800;DHT22;4939;52.00085300;4.17406100;2023-06-22T04:42:41;16.80;99.90
9800;DHT22;4939;52.00085300;4.17406100;2023-06-22T04:45:19;16.90;99.90
9800;DHT22;4939;52.00085300;4.17406100;2023-06-22T04:47:45;17.00;99.90
9800;DHT22;4939;52.00085300;4.17406100;2023-06-22T04:50:14;17.10;99.90
9800;DHT22;4939;52.00085300;4.17406100;2023-06-22T04:52:40;17.30;99.90
9800;DHT22;4939;52.00085300;4.17406100;2023-06-22T04:55:06;17.40;99.90
9800;DHT22;4939;52.00085300;4.17406100;2023-06-22T04:57:32;17.40;99.90
9800;DHT22;4939;52.00085300;4.17406100;2023-06-22T05:00:02;17.50;99.90
9800;DHT22;4939;52.00085300;4.17406100;2023-06-22T05:02:37;17.60;99.90
9800;DHT22;4939;52.00085300;4.17406100;2023-06-22T05:05:03;17.70;99.90
9800;DHT22;4939;52.00085300;4.17406100;2023-06-22T05:07:36;17.70;99.90
9800;DHT22;4939;52.00085300;4.17406100;2023-06-22T05:10:02;17.80;99.90
9800;DHT22;4939;52.00085300;4.17406100;2023-06-22T05:12:29;17.90;99.90
9800;DHT22;4939;52.00085300;4.17406100;2023-06-22T05:14:55;17.90;99.90
9800;DHT22;4939;52.00085300;4.17406100;2023-06-22T05:17:21;17.90;99.90
9800;DHT22;4939;52.00085300;4.17406100;2023-06-22T05:19:46;18.10;99.90
9800;DHT22;4939;52.00085300;4.17406100;2023-06-22T05:22:15;18.10;99.90
9800;DHT22;4939;52.00085300;4.17406100;2023-06-22T05:24:42;18.30;99.90
9800;DHT22;4939;52.00085300;4.17406100;2023-06-22T05:27:08;18.20;99.90
9800;DHT22;4939;52.00085300;4.17406100;2023-06-22T05:29:33;18.20;99.90
9800;DHT22;4939;52.00085300;4.17406100;2023-06-22T05:31:59;18.30;99.90
9800;DHT22;4939;52.00085300;4.17406100;2023-06-22T05:34:25;18.30;99.90
9800;DHT22;4939;52.00085300;4.17406100;2023-06-22T05:36:51;18.30;99.90
9800;DHT22;4939;52.00085300;4.17406100;2023-06-22T05:39:16;18.30;99.90
9800;DHT22;4939;52.00085300;4.17406100;2023-06-22T05:41:42;18.40;99.90
9800;DHT22;4939;52.00085300;4.17406100;2023-06-22T05:44:08;18.40;99.90
9800;DHT22;4939;52.00085300;4.17406100;2023-06-22T05:46:34;18.40;99.90
9800;DHT22;4939;52.00085300;4.17406100;2023-06-22T05:49:00;18.50;99.90
9800;DHT22;4939;52.00085300;4.17406100;2023-06-22T05:51:25;16.30;99.90
9800;DHT22;4939;52.00085300;4.17406100;2023-06-22T05:53:51;18.70;99.90
9800;DHT22;4939;52.00085300;4.17406100;2023-06-22T05:56:17;18.80;99.90
9800;DHT22;4939;52.00085300;4.17406100;2023-06-22T05:58:43;18.90;99.90
9800;DHT22;4939;52.00085300;4.17406100;2023-06-22T06:01:08;19.00;99.90
9800;DHT22;4939;52.00085300;4.17406100;2023-06-22T06:03:34;19.10;99.90
9800;DHT22;4939;52.00085300;4.17406100;2023-06-22T06:06:09;19.20;99.90
9800;DHT22;4939;52.00085300;4.17406100;2023-06-22T06:08:37;19.20;99.90
9800;DHT22;4939;52.00085300;4.17406100;2023-06-22T06:11:02;19.30;99.90
9800;DHT22;4939;52.00085300;4.17406100;2023-06-22T06:13:28;19.30;99.90
9800;DHT22;4939;52.00085300;4.17406100;2023-06-22T06:15:54;19.30;99.90
9800;DHT22;4939;52.00085300;4.17406100;2023-06-22T06:18:22;19.30;99.90
9800;DHT22;4939;52.00085300;4.17406100;2023-06-22T06:20:48;19.50;99.90
9800;DHT22;4939;52.00085300;4.17406100;2023-06-22T06:23:14;19.50;99.90
9800;DHT22;4939;52.00085300;4.17406100;2023-06-22T06:25:39;19.70;99.90
9800;DHT22;4939;52.00085300;4.17406100;2023-06-22T06:28:05;19.80;99.90
9800;DHT22;4939;52.00085300;4.17406100;2023-06-22T06:30:31;19.90;99.90
9800;DHT22;4939;52.00085300;4.17406100;2023-06-22T06:32:57;20.10;99.90
9800;DHT22;4939;52.00085300;4.17406100;2023-06-22T06:35:23;20.20;99.90
9800;DHT22;4939;52.00085300;4.17406100;2023-06-22T06:37:49;20.20;99.90
9800;DHT22;4939;52.00085300;4.17406100;2023-06-22T06:40:16;20.30;99.90
9800;DHT22;4939;52.00085300;4.17406100;2023-06-22T06:42:44;20.40;99.90
9800;DHT22;4939;52.00085300;4.17406100;2023-06-22T06:45:22;20.60;99.90
9800;DHT22;4939;52.00085300;4.17406100;2023-06-22T06:47:49;20.80;99.90
9800;DHT22;4939;52.00085300;4.17406100;2023-06-22T06:50:15;20.90;99.90
9800;DHT22;4939;52.00085300;4.17406100;2023-06-22T06:52:40;20.90;99.90
9800;DHT22;4939;52.00085300;4.17406100;2023-06-22T06:55:07;21.00;99.90
9800;DHT22;4939;52.00085300;4.17406100;2023-06-22T06:57:40;21.10;99.90
9800;DHT22;4939;52.00085300;4.17406100;2023-06-22T07:00:08;21.10;99.90
9800;DHT22;4939;52.00085300;4.17406100;2023-06-22T07:02:43;21.20;99.90
9800;DHT22;4939;52.00085300;4.17406100;2023-06-22T07:05:10;21.40;99.90
9800;DHT22;4939;52.00085300;4.17406100;2023-06-22T07:07:36;21.60;99.90
9800;DHT22;4939;52.00085300;4.17406100;2023-06-22T07:10:03;21.70;99.90
9800;DHT22;4939;52.00085300;4.17406100;2023-06-22T07:12:29;21.80;99.90
9800;DHT22;4939;52.00085300;4.17406100;2023-06-22T07:15:04;21.90;99.90
9800;DHT22;4939;52.00085300;4.17406100;2023-06-22T07:17:30;21.90;99.90
9800;DHT22;4939;52.00085300;4.17406100;2023-06-22T07:19:56;21.90;99.90
9800;DHT22;4939;52.00085300;4.17406100;2023-06-22T07:22:22;22.00;99.90
9800;DHT22;4939;52.00085300;4.17406100;2023-06-22T07:24:47;22.10;99.90
9800;DHT22;4939;52.00085300;4.17406100;2023-06-22T07:27:13;22.10;99.90
9800;DHT22;4939;52.00085300;4.17406100;2023-06-22T07:29:42;22.30;99.90
9800;DHT22;4939;52.00085300;4.17406100;2023-06-22T07:32:08;22.30;99.90
9800;DHT22;4939;52.00085300;4.17406100;2023-06-22T07:34:34;22.30;99.90
9800;DHT22;4939;52.00085300;4.17406100;2023-06-22T07:37:00;22.40;99.90
9800;DHT22;4939;52.00085300;4.17406100;2023-06-22T07:39:25;22.50;99.90
9800;DHT22;4939;52.00085300;4.17406100;2023-06-22T07:41:52;22.40;99.90
9800;DHT22;4939;52.00085300;4.17406100;2023-06-22T07:44:18;22.40;99.90
9800;DHT22;4939;52.00085300;4.17406100;2023-06-22T07:46:43;22.50;99.90
9800;DHT22;4939;52.00085300;4.17406100;2023-06-22T07:49:09;22.50;99.90
9800;DHT22;4939;52.00085300;4.17406100;2023-06-22T07:51:35;22.60;99.90
9800;DHT22;4939;52.00085300;4.17406100;2023-06-22T07:54:00;22.70;99.90
9800;DHT22;4939;52.00085300;4.17406100;2023-06-22T07:56:26;22.80;99.90
9800;DHT22;4939;52.00085300;4.17406100;2023-06-22T07:58:51;23.00;99.90
9800;DHT22;4939;52.00085300;4.17406100;2023-06-22T08:01:18;23.00;99.90
9800;DHT22;4939;52.00085300;4.17406100;2023-06-22T08:03:48;23.10;99.90
9800;DHT22;4939;52.00085300;4.17406100;2023-06-22T08:06:13;23.10;99.90
9800;DHT22;4939;52.00085300;4.17406100;2023-06-22T08:08:39;23.20;99.90
9800;DHT22;4939;52.00085300;4.17406100;2023-06-22T08:11:05;23.40;99.90
9800;DHT22;4939;52.00085300;4.17406100;2023-06-22T08:13:31;23.40;99.90
9800;DHT22;4939;52.00085300;4.17406100;2023-06-22T08:15:57;23.40;99.90
9800;DHT22;4939;52.00085300;4.17406100;2023-06-22T08:18:22;23.50;99.90
9800;DHT22;4939;52.00085300;4.17406100;2023-06-22T08:20:48;23.50;99.90
9800;DHT22;4939;52.00085300;4.17406100;2023-06-22T08:23:15;23.50;99.90
9800;DHT22;4939;52.00085300;4.17406100;2023-06-22T08:25:40;23.60;99.90
9800;DHT22;4939;52.00085300;4.17406100;2023-06-22T08:28:06;23.80;99.90
9800;DHT22;4939;52.00085300;4.17406100;2023-06-22T08:30:32;23.80;99.90
9800;DHT22;4939;52.00085300;4.17406100;2023-06-22T08:32:58;23.80;99.90
9800;DHT22;4939;52.00085300;4.17406100;2023-06-22T08:35:23;23.90;99.90
9800;DHT22;4939;52.00085300;4.17406100;2023-06-22T08:37:49;24.20;99.90
9800;DHT22;4939;52.00085300;4.17406100;2023-06-22T08:40:18;24.10;99.90
9800;DHT22;4939;52.00085300;4.17406100;2023-06-22T08:42:46;24.30;99.90
9800;DHT22;4939;52.00085300;4.17406100;2023-06-22T08:45:12;24.40;99.90
9800;DHT22;4939;52.00085300;4.17406100;2023-06-22T08:47:38;24.40;99.90
9800;DHT22;4939;52.00085300;4.17406100;2023-06-22T08:50:05;24.40;99.90
9800;DHT22;4939;52.00085300;4.17406100;2023-06-22T08:52:32;24.40;99.90
9800;DHT22;4939;52.00085300;4.17406100;2023-06-22T08:54:57;24.40;99.90
9800;DHT22;4939;52.00085300;4.17406100;2023-06-22T08:57:27;24.40;99.90
9800;DHT22;4939;52.00085300;4.17406100;2023-06-22T08:59:52;24.60;99.90
9800;DHT22;4939;52.00085300;4.17406100;2023-06-22T09:02:18;24.50;99.90
9800;DHT22;4939;52.00085300;4.17406100;2023-06-22T09:04:46;24.60;99.90
9800;DHT22;4939;52.00085300;4.17406100;2023-06-22T09:07:11;24.60;99.90
9800;DHT22;4939;52.00085300;4.17406100;2023-06-22T09:09:37;24.70;99.90
9800;DHT22;4939;52.00085300;4.17406100;2023-06-22T09:12:03;24.70;99.90
9800;DHT22;4939;52.00085300;4.17406100;2023-06-22T09:14:29;24.70;99.90
9800;DHT22;4939;52.00085300;4.17406100;2023-06-22T09:16:54;24.60;99.90
9800;DHT22;4939;52.00085300;4.17406100;2023-06-22T09:19:20;24.60;99.90
9800;DHT22;4939;52.00085300;4.17406100;2023-06-22T09:21:46;24.60;99.90
9800;DHT22;4939;52.00085300;4.17406100;2023-06-22T09:24:11;24.60;99.90
9800;DHT22;4939;52.00085300;4.17406100;2023-06-22T09:26:37;24.40;99.90
9800;DHT22;4939;52.00085300;4.17406100;2023-06-22T09:29:05;24.60;99.90
9800;DHT22;4939;52.00085300;4.17406100;2023-06-22T09:31:31;24.70;99.90
9800;DHT22;4939;52.00085300;4.17406100;2023-06-22T09:33:57;24.70;99.90
9800;DHT22;4939;52.00085300;4.17406100;2023-06-22T09:36:22;24.60;99.90
9800;DHT22;4939;52.00085300;4.17406100;2023-06-22T09:38:49;24.70;99.90
9800;DHT22;4939;52.00085300;4.17406100;2023-06-22T09:41:20;24.50;99.90
9800;DHT22;4939;52.00085300;4.17406100;2023-06-22T09:43:46;24.60;99.90
9800;DHT22;4939;52.00085300;4.17406100;2023-06-22T09:46:11;24.30;99.90
9800;DHT22;4939;52.00085300;4.17406100;2023-06-22T09:48:37;24.20;99.90
9800;DHT22;4939;52.00085300;4.17406100;2023-06-22T09:51:03;24.10;99.90
9800;DHT22;4939;52.00085300;4.17406100;2023-06-22T09:53:28;24.00;99.90
9800;DHT22;4939;52.00085300;4.17406100;2023-06-22T09:55:54;25.20;99.90
9800;DHT22;4939;52.00085300;4.17406100;2023-06-22T09:58:19;23.80;99.90
9800;DHT22;4939;52.00085300;4.17406100;2023-06-22T10:00:45;23.70;99.90
9800;DHT22;4939;52.00085300;4.17406100;2023-06-22T10:03:11;23.70;99.90
9800;DHT22;4939;52.00085300;4.17406100;2023-06-22T10:05:37;23.60;99.90
9800;DHT22;4939;52.00085300;4.17406100;2023-06-22T10:08:03;23.70;99.90
9800;DHT22;4939;52.00085300;4.17406100;2023-06-22T10:10:29;23.70;99.90
9800;DHT22;4939;52.00085300;4.17406100;2023-06-22T10:12:56;23.60;99.90
9800;DHT22;4939;52.00085300;4.17406100;2023-06-22T10:15:22;23.50;99.90
9800;DHT22;4939;52.00085300;4.17406100;2023-06-22T10:17:48;23.20;99.90
9800;DHT22;4939;52.00085300;4.17406100;2023-06-22T10:20:14;23.50;99.90
9800;DHT22;4939;52.00085300;4.17406100;2023-06-22T10:22:41;23.30;99.90
9800;DHT22;4939;52.00085300;4.17406100;2023-06-22T10:25:08;23.30;99.90
9800;DHT22;4939;52.00085300;4.17406100;2023-06-22T10:27:33;23.20;99.90
9800;DHT22;4939;52.00085300;4.17406100;2023-06-22T10:29:59;23.20;99.90
9800;DHT22;4939;52.00085300;4.17406100;2023-06-22T10:32:25;23.20;99.90
9800;DHT22;4939;52.00085300;4.17406100;2023-06-22T10:34:50;23.30;99.90
9800;DHT22;4939;52.00085300;4.17406100;2023-06-22T10:37:16;23.30;99.90
9800;DHT22;4939;52.00085300;4.17406100;2023-06-22T10:39:42;23.30;99.90
9800;DHT22;4939;52.00085300;4.17406100;2023-06-22T10:42:07;23.30;99.90
9800;DHT22;4939;52.00085300;4.17406100;2023-06-22T10:44:33;23.20;99.90
9800;DHT22;4939;52.00085300;4.17406100;2023-06-22T10:46:59;23.20;99.90
9800;DHT22;4939;52.00085300;4.17406100;2023-06-22T10:49:24;23.20;99.90
9800;DHT22;4939;52.00085300;4.17406100;2023-06-22T10:51:50;23.10;99.90
9800;DHT22;4939;52.00085300;4.17406100;2023-06-22T10:54:15;23.10;99.90
9800;DHT22;4939;52.00085300;4.17406100;2023-06-22T10:56:43;23.10;99.90
9800;DHT22;4939;52.00085300;4.17406100;2023-06-22T10:59:09;23.10;99.90
9800;DHT22;4939;52.00085300;4.17406100;2023-06-22T11:01:34;23.10;99.90
9800;DHT22;4939;52.00085300;4.17406100;2023-06-22T11:04:00;23.20;99.90
9800;DHT22;4939;52.00085300;4.17406100;2023-06-22T11:06:26;23.10;99.90
9800;DHT22;4939;52.00085300;4.17406100;2023-06-22T11:08:52;23.10;99.90
9800;DHT22;4939;52.00085300;4.17406100;2023-06-22T11:11:17;23.10;99.90
9800;DHT22;4939;52.00085300;4.17406100;2023-06-22T11:13:43;23.20;99.90
9800;DHT22;4939;52.00085300;4.17406100;2023-06-22T11:16:10;23.20;99.90
9800;DHT22;4939;52.00085300;4.17406100;2023-06-22T11:18:36;23.10;99.90
9800;DHT22;4939;52.00085300;4.17406100;2023-06-22T11:21:01;23.00;99.90
9800;DHT22;4939;52.00085300;4.17406100;2023-06-22T11:23:27;23.00;99.90
9800;DHT22;4939;52.00085300;4.17406100;2023-06-22T11:25:54;23.00;99.90
9800;DHT22;4939;52.00085300;4.17406100;2023-06-22T11:28:20;23.00;99.90
9800;DHT22;4939;52.00085300;4.17406100;2023-06-22T11:30:45;23.10;99.90
9800;DHT22;4939;52.00085300;4.17406100;2023-06-22T11:33:11;23.10;99.90
9800;DHT22;4939;52.00085300;4.17406100;2023-06-22T11:35:37;22.90;99.90
9800;DHT22;4939;52.00085300;4.17406100;2023-06-22T11:38:02;22.80;99.90
9800;DHT22;4939;52.00085300;4.17406100;2023-06-22T11:40:29;22.70;99.90
9800;DHT22;4939;52.00085300;4.17406100;2023-06-22T11:42:55;22.70;99.90
9800;DHT22;4939;52.00085300;4.17406100;2023-06-22T11:45:20;22.60;99.90
9800;DHT22;4939;52.00085300;4.17406100;2023-06-22T11:47:47;22.60;99.90
9800;DHT22;4939;52.00085300;4.17406100;2023-06-22T11:50:12;22.70;99.90
9800;DHT22;4939;52.00085300;4.17406100;2023-06-22T11:52:38;22.60;99.90
9800;DHT22;4939;52.00085300;4.17406100;2023-06-22T11:55:04;22.50;99.90
9800;DHT22;4939;52.00085300;4.17406100;2023-06-22T11:57:33;22.40;99.90
9800;DHT22;4939;52.00085300;4.17406100;2023-06-22T11:59:59;22.40;99.90
9800;DHT22;4939;52.00085300;4.17406100;2023-06-22T12:02:25;22.30;99.90
9800;DHT22;4939;52.00085300;4.17406100;2023-06-22T12:04:51;22.30;99.90
9800;DHT22;4939;52.00085300;4.17406100;2023-06-22T12:07:18;22.20;99.90
9800;DHT22;4939;52.00085300;4.17406100;2023-06-22T12:09:43;22.10;99.90
9800;DHT22;4939;52.00085300;4.17406100;2023-06-22T12:12:10;22.00;99.90
9800;DHT22;4939;52.00085300;4.17406100;2023-06-22T12:14:35;21.90;99.90
9800;DHT22;4939;52.00085300;4.17406100;2023-06-22T12:17:01;21.90;99.90
9800;DHT22;4939;52.00085300;4.17406100;2023-06-22T12:19:27;21.80;99.90
9800;DHT22;4939;52.00085300;4.17406100;2023-06-22T12:21:52;21.60;99.90
9800;DHT22;4939;52.00085300;4.17406100;2023-06-22T12:24:18;21.50;99.90
9800;DHT22;4939;52.00085300;4.17406100;2023-06-22T12:26:43;21.50;99.90
9800;DHT22;4939;52.00085300;4.17406100;2023-06-22T12:29:09;21.40;99.90
9800;DHT22;4939;52.00085300;4.17406100;2023-06-22T12:31:36;21.30;99.90
9800;DHT22;4939;52.00085300;4.17406100;2023-06-22T12:34:04;21.20;99.90
9800;DHT22;4939;52.00085300;4.17406100;2023-06-22T12:36:30;21.10;99.90
9800;DHT22;4939;52.00085300;4.17406100;2023-06-22T12:38:55;21.10;99.90
9800;DHT22;4939;52.00085300;4.17406100;2023-06-22T12:41:21;21.30;99.90
9800;DHT22;4939;52.00085300;4.17406100;2023-06-22T12:43:46;21.10;99.90
9800;DHT22;4939;52.00085300;4.17406100;2023-06-22T12:46:12;21.10;99.90
9800;DHT22;4939;52.00085300;4.17406100;2023-06-22T12:48:38;21.20;99.90
9800;DHT22;4939;52.00085300;4.17406100;2023-06-22T12:51:08;21.20;99.90
9800;DHT22;4939;52.00085300;4.17406100;2023-06-22T12:53:35;21.30;99.90
9800;DHT22;4939;52.00085300;4.17406100;2023-06-22T12:56:00;21.30;99.90
9800;DHT22;4939;52.00085300;4.17406100;2023-06-22T12:58:26;21.30;99.90
9800;DHT22;4939;52.00085300;4.17406100;2023-06-22T13:00:51;21.40;99.90
9800;DHT22;4939;52.00085300;4.17406100;2023-06-22T13:03:17;21.50;99.90
9800;DHT22;4939;52.00085300;4.17406100;2023-06-22T13:05:43;21.50;99.90
9800;DHT22;4939;52.00085300;4.17406100;2023-06-22T13:08:08;21.60;99.90
9800;DHT22;4939;52.00085300;4.17406100;2023-06-22T13:10:34;21.50;99.90
9800;DHT22;4939;52.00085300;4.17406100;2023-06-22T13:13:00;21.50;99.90
9800;DHT22;4939;52.00085300;4.17406100;2023-06-22T13:15:27;21.50;99.90
9800;DHT22;4939;52.00085300;4.17406100;2023-06-22T13:17:53;21.40;99.90
9800;DHT22;4939;52.00085300;4.17406100;2023-06-22T13:20:19;21.50;99.90
9800;DHT22;4939;52.00085300;4.17406100;2023-06-22T13:22:44;21.60;99.90
9800;DHT22;4939;52.00085300;4.17406100;2023-06-22T13:25:10;21.60;99.90
9800;DHT22;4939;52.00085300;4.17406100;2023-06-22T13:27:39;21.60;99.90
9800;DHT22;4939;52.00085300;4.17406100;2023-06-22T13:30:05;21.50;99.90
9800;DHT22;4939;52.00085300;4.17406100;2023-06-22T13:32:31;21.60;99.90
9800;DHT22;4939;52.00085300;4.17406100;2023-06-22T13:34:57;21.60;99.90
9800;DHT22;4939;52.00085300;4.17406100;2023-06-22T13:37:23;21.70;99.90
9800;DHT22;4939;52.00085300;4.17406100;2023-06-22T13:39:48;21.60;99.90
9800;DHT22;4939;52.00085300;4.17406100;2023-06-22T13:42:14;21.60;99.90
9800;DHT22;4939;52.00085300;4.17406100;2023-06-22T13:44:40;21.60;99.90
9800;DHT22;4939;52.00085300;4.17406100;2023-06-22T13:47:06;21.50;99.90
9800;DHT22;4939;52.00085300;4.17406100;2023-06-22T13:49:32;21.50;99.90